createdAt,value
2023-05-13T00:01:49.967Z,3.90
2023-05-13T00:04:16.895Z,4.60
2023-05-13T00:06:43.556Z,2.13
2023-05-13T00:09:10.241Z,3.33
2023-05-13T00:11:36.944Z,2.20
2023-05-13T00:14:03.939Z,3.17
2023-05-13T00:16:30.612Z,1.93
2023-05-13T00:18:57.696Z,2.33
2023-05-13T00:21:24.351Z,2.40
2023-05-13T00:23:51.070Z,8.13
2023-05-13T00:26:17.853Z,2.50
2023-05-13T00:28:44.466Z,2.80
2023-05-13T00:31:11.523Z,2.57
2023-05-13T00:33:38.348Z,3.00
2023-05-13T00:36:05.436Z,2.20
2023-05-13T00:38:32.780Z,3.37
2023-05-13T00:40:59.457Z,2.73
2023-05-13T00:43:26.156Z,2.33
2023-05-13T00:45:52.844Z,2.50
2023-05-13T00:48:19.716Z,2.90
2023-05-13T00:50:46.545Z,3.10
2023-05-13T00:53:13.249Z,2.43
2023-05-13T00:55:44.355Z,2.30
2023-05-13T00:58:11.697Z,2.57
2023-05-13T01:00:47.315Z,3.63
2023-05-13T01:03:21.846Z,2.63
2023-05-13T01:06:11.824Z,2.47
2023-05-13T01:09:02.270Z,2.43
2023-05-13T01:11:34.780Z,2.30
2023-05-13T01:14:14.660Z,4.83
2023-05-13T01:16:55.918Z,2.40
2023-05-13T01:19:53.199Z,4.20
2023-05-13T01:22:19.806Z,2.60
2023-05-13T01:24:46.441Z,3.00
2023-05-13T01:27:13.910Z,2.60
2023-05-13T01:29:40.959Z,2.77
2023-05-13T01:32:09.913Z,2.87
2023-05-13T01:34:38.471Z,3.00
2023-05-13T01:37:05.905Z,3.20
2023-05-13T01:39:32.728Z,2.90
2023-05-13T01:41:59.381Z,6.40
2023-05-13T01:44:25.998Z,2.63
2023-05-13T01:46:53.593Z,3.10
2023-05-13T01:49:20.440Z,3.30
2023-05-13T01:51:47.133Z,3.07
2023-05-13T01:54:13.753Z,3.10
2023-05-13T01:56:40.415Z,2.60
2023-05-13T01:59:09.523Z,3.17
2023-05-13T02:01:36.865Z,2.60
2023-05-13T02:04:03.814Z,3.93
2023-05-13T02:06:30.504Z,3.80
2023-05-13T02:08:57.259Z,2.50
2023-05-13T02:11:24.072Z,3.50
2023-05-13T02:13:50.752Z,2.87
2023-05-13T02:16:18.330Z,5.47
2023-05-13T02:18:45.132Z,2.67
2023-05-13T02:21:11.805Z,5.17
2023-05-13T02:23:38.685Z,4.33
2023-05-13T02:26:05.384Z,3.60
2023-05-13T02:28:31.996Z,2.53
2023-05-13T02:30:58.604Z,2.70
2023-05-13T02:33:25.268Z,3.70
2023-05-13T02:35:51.966Z,3.23
2023-05-13T02:38:18.625Z,3.87
2023-05-13T02:40:45.339Z,4.00
2023-05-13T02:43:11.971Z,5.00
2023-05-13T02:45:40.759Z,3.30
2023-05-13T02:48:07.707Z,3.30
2023-05-13T02:50:34.351Z,3.20
2023-05-13T02:53:01.094Z,4.50
2023-05-13T02:55:27.940Z,3.30
2023-05-13T02:57:56.667Z,3.10
2023-05-13T03:00:23.909Z,4.93
2023-05-13T03:02:50.909Z,3.10
2023-05-13T03:05:17.589Z,3.13
2023-05-13T03:07:44.305Z,3.10
2023-05-13T03:10:10.964Z,4.23
2023-05-13T03:12:37.704Z,4.87
2023-05-13T03:15:04.789Z,2.90
2023-05-13T03:17:32.006Z,3.63
2023-05-13T03:19:58.760Z,3.70
2023-05-13T03:22:25.493Z,3.10
2023-05-13T03:24:52.134Z,5.77
2023-05-13T03:27:19.078Z,3.17
2023-05-13T03:29:45.758Z,3.07
2023-05-13T03:32:12.523Z,4.57
2023-05-13T03:34:39.188Z,3.03
2023-05-13T03:37:05.864Z,3.27
2023-05-13T03:39:32.560Z,2.60
2023-05-13T03:41:59.156Z,3.00
2023-05-13T03:44:25.822Z,5.90
2023-05-13T03:46:52.571Z,3.30
2023-05-13T03:49:19.250Z,3.00
2023-05-13T03:51:45.952Z,4.00
2023-05-13T03:54:12.676Z,4.27
2023-05-13T03:56:39.279Z,3.07
2023-05-13T03:59:05.891Z,3.30
2023-05-13T04:01:32.546Z,2.97
2023-05-13T04:03:59.125Z,2.90
2023-05-13T04:06:25.850Z,3.10
2023-05-13T04:08:52.501Z,3.20
2023-05-13T04:11:19.151Z,3.70
2023-05-13T04:13:45.962Z,4.37
2023-05-13T04:16:12.826Z,3.63
2023-05-13T04:18:39.524Z,3.13
2023-05-13T04:21:07.495Z,3.50
2023-05-13T04:23:34.193Z,3.50
2023-05-13T04:26:00.829Z,4.53
2023-05-13T04:28:27.547Z,6.33
2023-05-13T04:30:54.524Z,3.77
2023-05-13T04:33:21.128Z,6.50
2023-05-13T04:35:47.758Z,3.37
2023-05-13T04:38:14.593Z,3.03
2023-05-13T04:40:41.228Z,4.60
2023-05-13T04:43:07.898Z,3.73
2023-05-13T04:45:34.558Z,3.23
2023-05-13T04:48:01.251Z,3.10
2023-05-13T04:50:27.931Z,3.40
2023-05-13T04:52:56.308Z,4.37
2023-05-13T04:55:23.094Z,3.47
2023-05-13T04:57:49.801Z,5.13
2023-05-13T05:00:16.964Z,3.30
2023-05-13T05:02:43.630Z,4.20
2023-05-13T05:05:10.425Z,3.30
2023-05-13T05:07:40.405Z,3.60
2023-05-13T05:10:08.523Z,3.60
2023-05-13T05:12:35.252Z,3.73
2023-05-13T05:15:01.863Z,3.63
2023-05-13T05:17:32.421Z,3.23
2023-05-13T05:19:59.717Z,3.13
2023-05-13T05:22:26.972Z,3.80
2023-05-13T05:24:53.637Z,3.30
2023-05-13T05:27:20.344Z,3.63
2023-05-13T05:29:47.017Z,3.03
2023-05-13T05:32:13.873Z,3.50
2023-05-13T05:34:40.925Z,3.30
2023-05-13T05:37:07.681Z,3.33
2023-05-13T05:39:35.173Z,3.50
2023-05-13T05:42:01.918Z,4.13
2023-05-13T05:44:28.603Z,3.30
2023-05-13T05:46:56.324Z,3.37
2023-05-13T05:49:22.985Z,3.40
2023-05-13T05:51:49.666Z,3.70
2023-05-13T05:54:16.390Z,3.53
2023-05-13T05:56:43.002Z,3.17
2023-05-13T05:59:09.655Z,3.37
2023-05-13T06:01:38.408Z,3.80
2023-05-13T06:04:06.626Z,3.70
2023-05-13T06:06:33.678Z,3.20
2023-05-13T06:09:00.499Z,3.13
2023-05-13T06:11:27.185Z,3.47
2023-05-13T06:13:54.297Z,3.00
2023-05-13T06:16:21.028Z,6.47
2023-05-13T06:18:47.823Z,3.00
2023-05-13T06:21:14.625Z,5.53
2023-05-13T06:23:42.084Z,8.37
2023-05-13T06:26:08.773Z,3.20
2023-05-13T06:28:35.446Z,3.70
2023-05-13T06:31:02.168Z,3.00
2023-05-13T06:33:28.969Z,5.77
2023-05-13T06:35:55.593Z,3.07
2023-05-13T06:38:22.733Z,3.20
2023-05-13T06:40:49.331Z,3.07
2023-05-13T06:43:16.378Z,3.53
2023-05-13T06:45:43.139Z,5.37
2023-05-13T06:48:09.998Z,3.27
2023-05-13T06:50:36.686Z,3.57
2023-05-13T06:53:03.373Z,3.07
2023-05-13T06:55:30.108Z,2.90
2023-05-13T06:57:56.764Z,3.27
2023-05-13T07:00:23.946Z,3.37
2023-05-13T07:02:50.923Z,6.50
2023-05-13T07:05:17.694Z,3.30
2023-05-13T07:07:44.368Z,3.80
2023-05-13T07:10:11.208Z,3.33
2023-05-13T07:12:37.853Z,3.20
2023-05-13T07:15:05.329Z,3.60
2023-05-13T07:17:32.017Z,3.30
2023-05-13T07:19:59.100Z,3.23
2023-05-13T07:22:25.785Z,3.50
2023-05-13T07:24:52.395Z,3.23
2023-05-13T07:27:19.049Z,3.27
2023-05-13T07:29:45.694Z,3.30
2023-05-13T07:32:12.336Z,2.87
2023-05-13T07:34:39.269Z,3.20
2023-05-13T07:37:05.922Z,3.10
2023-05-13T07:39:32.579Z,3.67
2023-05-13T07:41:59.213Z,3.07
2023-05-13T07:44:26.479Z,4.87
2023-05-13T07:46:53.665Z,4.87
2023-05-13T07:49:21.640Z,3.27
2023-05-13T07:51:48.416Z,3.07
2023-05-13T07:54:15.241Z,3.17
2023-05-13T07:56:44.086Z,2.70
2023-05-13T07:59:10.771Z,3.00
2023-05-13T08:01:37.380Z,3.77
2023-05-13T08:04:04.211Z,3.00
2023-05-13T08:06:32.736Z,3.30
2023-05-13T08:08:59.692Z,3.23
2023-05-13T08:11:26.375Z,3.53
2023-05-13T08:13:53.044Z,3.70
2023-05-13T08:16:19.722Z,3.03
2023-05-13T08:18:46.396Z,2.83
2023-05-13T08:21:13.036Z,5.57
2023-05-13T08:23:45.333Z,3.00
2023-05-13T08:26:13.267Z,3.37
2023-05-13T08:28:39.984Z,3.00
2023-05-13T08:31:06.602Z,2.80
2023-05-13T08:33:33.385Z,2.57
2023-05-13T08:36:01.021Z,3.10
2023-05-13T08:38:27.726Z,3.20
2023-05-13T08:40:54.476Z,3.23
2023-05-13T08:43:24.233Z,3.13
2023-05-13T08:45:53.563Z,3.00
2023-05-13T08:48:21.487Z,4.10
2023-05-13T08:50:48.570Z,3.00
2023-05-13T08:53:18.253Z,2.80
2023-05-13T08:55:45.439Z,4.90
2023-05-13T08:58:12.370Z,3.30
2023-05-13T09:00:39.737Z,3.10
2023-05-13T09:03:08.232Z,2.67
2023-05-13T09:05:38.762Z,2.80
2023-05-13T09:08:12.440Z,2.50
2023-05-13T09:10:39.314Z,3.33
2023-05-13T09:13:07.219Z,2.70
2023-05-13T09:15:34.055Z,2.87
2023-05-13T09:18:05.786Z,3.30
2023-05-13T09:20:33.876Z,3.80
2023-05-13T09:23:06.385Z,3.10
2023-05-13T09:25:33.566Z,2.67
2023-05-13T09:28:02.524Z,2.40
2023-05-13T09:30:34.995Z,3.00
2023-05-13T09:33:10.163Z,2.80
2023-05-13T09:35:58.339Z,3.00
2023-05-13T09:38:31.557Z,4.13
2023-05-13T09:41:03.134Z,2.70
2023-05-13T09:43:33.460Z,2.83
2023-05-13T09:46:05.083Z,3.73
2023-05-13T09:48:33.286Z,3.80
2023-05-13T09:51:00.638Z,2.70
2023-05-13T09:53:28.195Z,2.77
2023-05-13T09:55:56.476Z,2.53
2023-05-13T09:58:24.470Z,2.53
2023-05-13T10:00:52.310Z,2.50
2023-05-13T10:03:19.851Z,2.53
2023-05-13T10:05:48.568Z,2.30
2023-05-13T10:08:17.516Z,2.50
2023-05-13T10:10:46.156Z,2.27
2023-05-13T10:13:16.862Z,2.20
2023-05-13T10:15:50.735Z,2.60
2023-05-13T10:18:19.013Z,3.03
2023-05-13T10:20:46.822Z,2.93
2023-05-13T10:23:13.661Z,2.10
2023-05-13T10:25:41.763Z,2.73
2023-05-13T10:28:09.907Z,2.73
2023-05-13T10:30:38.000Z,2.43
2023-05-13T10:33:05.058Z,2.33
2023-05-13T10:35:38.564Z,2.40
2023-05-13T10:38:31.810Z,2.83
2023-05-13T10:41:29.046Z,2.20
2023-05-13T10:43:59.658Z,2.17
2023-05-13T10:46:27.492Z,2.30
2023-05-13T10:48:59.805Z,4.00
2023-05-13T10:51:27.518Z,2.40
2023-05-13T10:53:56.575Z,1.90
2023-05-13T10:56:28.373Z,2.27
2023-05-13T10:59:03.490Z,2.20
2023-05-13T11:01:34.367Z,2.30
2023-05-13T11:04:04.162Z,2.53
2023-05-13T11:06:37.824Z,2.00
2023-05-13T11:09:09.125Z,2.10
2023-05-13T11:11:36.769Z,3.60
2023-05-13T11:14:12.704Z,2.50
2023-05-13T11:16:44.808Z,2.30
2023-05-13T11:19:21.562Z,2.40
2023-05-13T11:21:52.073Z,2.17
2023-05-13T11:24:20.206Z,2.00
2023-05-13T11:26:50.984Z,2.87
2023-05-13T11:29:55.392Z,2.60
2023-05-13T11:32:55.986Z,3.20
2023-05-13T11:35:24.788Z,2.33
2023-05-13T11:37:51.545Z,2.03
2023-05-13T11:40:38.229Z,2.23
2023-05-13T11:43:05.719Z,2.33
2023-05-13T11:45:33.738Z,2.87
2023-05-13T11:48:21.353Z,2.50
2023-05-13T11:50:50.690Z,2.53
2023-05-13T11:53:22.810Z,2.40
2023-05-13T11:55:49.797Z,2.60
2023-05-13T11:58:20.549Z,2.63
2023-05-13T12:00:47.545Z,2.80
2023-05-13T12:03:16.525Z,2.80
2023-05-13T12:05:46.280Z,4.43
2023-05-13T12:08:13.058Z,2.30
2023-05-13T12:10:43.830Z,2.50
2023-05-13T12:13:10.872Z,2.30
2023-05-13T12:15:37.757Z,2.30
2023-05-13T12:18:04.615Z,2.57
2023-05-13T12:20:31.394Z,2.87
2023-05-13T12:23:00.116Z,2.50
2023-05-13T12:25:51.332Z,3.20
2023-05-13T12:28:23.676Z,2.80
2023-05-13T12:31:02.361Z,2.80
2023-05-13T12:33:55.557Z,2.93
2023-05-13T12:36:37.005Z,2.53
2023-05-13T12:39:09.224Z,2.80
2023-05-13T12:41:38.132Z,2.57
2023-05-13T12:44:09.067Z,2.93
2023-05-13T12:46:36.529Z,4.80
2023-05-13T12:49:04.721Z,2.90
2023-05-13T12:51:35.343Z,6.63
2023-05-13T12:54:02.024Z,4.50
2023-05-13T12:56:28.798Z,3.47
2023-05-13T12:58:55.979Z,2.67
2023-05-13T13:01:22.910Z,3.03
2023-05-13T13:03:49.808Z,2.47
2023-05-13T13:06:17.603Z,3.10
2023-05-13T13:08:44.280Z,3.33
2023-05-13T13:11:14.722Z,2.53
2023-05-13T13:13:41.649Z,2.17
2023-05-13T13:16:09.194Z,2.27
2023-05-13T13:18:36.220Z,2.63
2023-05-13T13:21:02.910Z,2.07
2023-05-13T13:23:29.616Z,2.30
2023-05-13T13:25:58.311Z,2.30
2023-05-13T13:28:26.028Z,2.37
2023-05-13T13:30:52.819Z,2.20
2023-05-13T13:33:20.789Z,4.60
2023-05-13T13:35:48.215Z,3.80
2023-05-13T13:38:15.037Z,2.37
2023-05-13T13:40:41.769Z,2.20
2023-05-13T13:43:08.657Z,2.40
2023-05-13T13:45:36.882Z,2.10
2023-05-13T13:48:03.704Z,2.47
2023-05-13T13:50:30.483Z,2.20
2023-05-13T13:52:57.121Z,2.10
2023-05-13T13:55:24.307Z,2.10
2023-05-13T13:57:51.886Z,2.27
2023-05-13T14:00:19.024Z,2.10
2023-05-13T14:02:45.887Z,1.83
2023-05-13T14:05:13.316Z,1.83
2023-05-13T14:07:40.146Z,1.90
2023-05-13T14:10:07.532Z,2.07
2023-05-13T14:12:36.138Z,2.40
2023-05-13T14:15:02.962Z,2.10
2023-05-13T14:17:29.680Z,3.63
2023-05-13T14:19:56.355Z,2.17
2023-05-13T14:22:24.154Z,2.37
2023-05-13T14:24:52.272Z,2.27
2023-05-13T14:27:19.915Z,1.90
2023-05-13T14:29:47.690Z,2.13
2023-05-13T14:32:14.444Z,2.23
2023-05-13T14:34:41.189Z,1.93
2023-05-13T14:37:08.259Z,2.43
2023-05-13T14:39:35.163Z,2.20
2023-05-13T14:42:01.908Z,1.97
2023-05-13T14:44:28.621Z,2.00
2023-05-13T14:46:56.017Z,1.93
2023-05-13T14:49:22.746Z,2.00
2023-05-13T14:51:49.534Z,2.27
2023-05-13T14:54:17.675Z,1.83
2023-05-13T14:56:44.670Z,1.50
2023-05-13T14:59:11.580Z,1.57
2023-05-13T15:01:38.696Z,1.90
2023-05-13T15:04:05.922Z,1.90
2023-05-13T15:06:33.420Z,1.80
2023-05-13T15:09:00.253Z,2.13
2023-05-13T15:11:30.726Z,2.00
2023-05-13T15:13:57.330Z,2.13
2023-05-13T15:16:24.290Z,1.80
2023-05-13T15:18:50.973Z,2.00
2023-05-13T15:21:17.870Z,2.20
2023-05-13T15:23:44.597Z,5.83
2023-05-13T15:26:11.310Z,2.07
2023-05-13T15:28:38.261Z,1.80
2023-05-13T15:31:05.887Z,1.70
2023-05-13T15:33:32.708Z,1.73
2023-05-13T15:36:01.000Z,1.90
2023-05-13T15:38:27.887Z,1.80
2023-05-13T15:40:54.839Z,1.90
2023-05-13T15:43:21.532Z,2.00
2023-05-13T15:45:49.729Z,3.10
2023-05-13T15:48:17.336Z,3.17
2023-05-13T15:50:44.029Z,1.67
2023-05-13T15:53:10.729Z,1.87
2023-05-13T15:55:39.272Z,1.80
2023-05-13T15:58:07.107Z,1.97
2023-05-13T16:00:33.980Z,1.60
2023-05-13T16:03:00.805Z,1.33
2023-05-13T16:05:27.868Z,1.20
2023-05-13T16:07:55.862Z,2.03
2023-05-13T16:10:23.134Z,1.60
2023-05-13T16:12:49.834Z,1.60
2023-05-13T16:15:16.569Z,1.40
2023-05-13T16:17:43.331Z,1.63
2023-05-13T16:20:11.680Z,1.97
2023-05-13T16:22:39.091Z,1.70
2023-05-13T16:25:10.033Z,1.50
2023-05-13T16:27:58.887Z,1.60
2023-05-13T16:30:35.924Z,1.70
2023-05-13T16:44:04.857Z,1.47
2023-05-13T16:49:55.317Z,1.67
2023-05-13T16:55:09.714Z,1.70
2023-05-13T17:00:36.710Z,1.87
2023-05-13T17:03:03.889Z,1.70
2023-05-13T17:05:31.853Z,1.60
2023-05-13T17:07:58.609Z,1.80
2023-05-13T17:10:25.423Z,1.83
2023-05-13T17:12:52.230Z,1.90
2023-05-13T17:15:18.838Z,1.60
2023-05-13T17:17:45.500Z,2.27
2023-05-13T17:20:12.506Z,1.90
2023-05-13T17:22:39.767Z,1.97
2023-05-13T17:25:07.030Z,2.00
2023-05-13T17:27:33.657Z,2.27
2023-05-13T17:30:00.391Z,2.20
2023-05-13T17:32:27.220Z,2.30
2023-05-13T17:34:53.923Z,2.53
2023-05-13T17:37:20.581Z,2.07
2023-05-13T17:39:47.365Z,2.30
2023-05-13T17:42:13.941Z,2.63
2023-05-13T17:44:40.727Z,2.30
2023-05-13T17:47:07.402Z,2.77
2023-05-13T17:49:34.357Z,2.87
2023-05-13T17:52:00.979Z,2.60
2023-05-13T17:54:27.605Z,2.93
2023-05-13T17:56:54.307Z,2.40
2023-05-13T17:59:20.981Z,3.00
2023-05-13T18:01:47.619Z,3.40
2023-05-13T18:04:14.438Z,3.03
2023-05-13T18:06:41.422Z,2.87
2023-05-13T18:09:08.661Z,2.93
2023-05-13T18:11:35.526Z,3.37
2023-05-13T18:14:02.228Z,3.00
2023-05-13T18:16:28.918Z,4.77
2023-05-13T18:18:55.681Z,4.23
2023-05-13T18:21:24.075Z,3.43
2023-05-13T18:23:50.828Z,3.23
2023-05-13T18:26:17.462Z,3.37
2023-05-13T18:28:46.890Z,3.60
2023-05-13T18:31:13.577Z,4.53
2023-05-13T18:33:40.336Z,4.10
2023-05-13T18:36:08.737Z,3.83
2023-05-13T18:38:36.604Z,3.93
2023-05-13T18:41:03.634Z,3.70
2023-05-13T18:43:30.604Z,3.83
2023-05-13T18:45:58.037Z,3.63
2023-05-13T18:48:25.059Z,3.57
2023-05-13T18:50:53.001Z,3.80
2023-05-13T18:53:20.034Z,4.33
2023-05-13T18:55:46.705Z,3.87
2023-05-13T18:58:13.839Z,4.20
2023-05-13T19:00:40.749Z,3.80
2023-05-13T19:03:07.652Z,3.97
2023-05-13T19:05:34.470Z,4.33
2023-05-13T19:08:01.186Z,4.03
2023-05-13T19:10:27.811Z,4.60
2023-05-13T19:12:54.553Z,4.50
2023-05-13T19:15:22.728Z,4.37
2023-05-13T19:17:49.512Z,4.83
2023-05-13T19:20:16.862Z,5.17
2023-05-13T19:22:43.650Z,5.60
2023-05-13T19:25:10.901Z,4.27
2023-05-13T19:27:37.944Z,4.60
2023-05-13T19:30:05.266Z,4.30
2023-05-13T19:32:32.060Z,4.80
2023-05-13T19:34:58.742Z,4.47
2023-05-13T19:37:26.337Z,4.57
2023-05-13T19:39:53.004Z,4.83
2023-05-13T19:42:19.692Z,4.50
2023-05-13T19:44:46.693Z,4.80
2023-05-13T19:47:13.577Z,4.50
2023-05-13T19:49:40.486Z,4.80
2023-05-13T19:52:07.349Z,5.13
2023-05-13T19:54:34.053Z,4.77
2023-05-13T19:57:01.222Z,5.33
2023-05-13T19:59:27.890Z,6.57
2023-05-13T20:01:54.585Z,5.20
2023-05-13T20:04:21.717Z,5.90
2023-05-13T20:06:48.428Z,5.90
2023-05-13T20:09:15.062Z,5.00
2023-05-13T20:11:41.956Z,5.70
2023-05-13T20:14:08.701Z,6.57
2023-05-13T20:16:35.876Z,5.77
2023-05-13T20:19:02.633Z,6.07
2023-05-13T20:21:29.435Z,7.10
2023-05-13T20:23:56.414Z,7.43
2023-05-13T20:26:25.886Z,6.57
2023-05-13T20:28:53.207Z,6.87
2023-05-13T20:31:19.948Z,6.20
2023-05-13T20:33:46.621Z,5.83
2023-05-13T20:36:13.546Z,6.53
2023-05-13T20:38:40.207Z,5.87
2023-05-13T20:41:07.731Z,5.60
2023-05-13T20:43:35.946Z,5.80
2023-05-13T20:46:04.337Z,7.20
2023-05-13T20:48:32.098Z,5.43
2023-05-13T20:51:02.321Z,6.00
2023-05-13T20:53:28.998Z,6.03
2023-05-13T20:55:55.688Z,7.17
2023-05-13T20:58:22.371Z,5.70
2023-05-13T21:00:49.133Z,6.10
2023-05-13T21:03:15.902Z,6.83
2023-05-13T21:05:42.650Z,6.07
2023-05-13T21:08:09.383Z,5.37
2023-05-13T21:10:38.802Z,5.63
2023-05-13T21:13:05.643Z,6.43
2023-05-13T21:15:32.428Z,5.47
2023-05-13T21:17:59.206Z,6.30
2023-05-13T21:20:25.989Z,6.03
2023-05-13T21:22:52.685Z,6.53
2023-05-13T21:25:19.382Z,6.63
2023-05-13T21:27:46.065Z,5.90
2023-05-13T21:30:13.712Z,5.83
2023-05-13T21:32:40.778Z,6.03
2023-05-13T21:35:08.311Z,6.10
2023-05-13T21:37:35.259Z,6.43
2023-05-13T21:40:02.182Z,6.90
2023-05-13T21:42:29.115Z,6.47
2023-05-13T21:44:57.361Z,7.37
2023-05-13T21:47:24.354Z,7.67
2023-05-13T21:49:51.246Z,5.67
2023-05-13T21:52:18.232Z,6.47
2023-05-13T21:54:45.193Z,6.37
2023-05-13T21:57:12.135Z,6.80
2023-05-13T21:59:39.037Z,6.90
2023-05-13T22:02:06.390Z,6.87
2023-05-13T22:04:33.299Z,9.93
2023-05-13T22:07:01.499Z,6.77
2023-05-13T22:09:28.332Z,7.90
2023-05-13T22:11:55.142Z,7.33
2023-05-13T22:14:22.067Z,9.30
2023-05-13T22:16:57.819Z,9.20
2023-05-13T22:19:34.636Z,7.40
2023-05-13T22:22:01.572Z,8.10
2023-05-13T22:24:28.473Z,6.77
2023-05-13T22:26:55.413Z,7.50
2023-05-13T22:29:22.354Z,7.70
2023-05-13T22:31:49.351Z,8.60
2023-05-13T22:34:16.294Z,7.60
2023-05-13T22:36:44.059Z,9.17
2023-05-13T22:39:13.936Z,6.57
2023-05-13T23:04:59.659Z,8.67
2023-05-13T23:07:26.334Z,5.97
2023-05-13T23:09:52.983Z,5.90
2023-05-13T23:12:19.614Z,6.60
2023-05-13T23:14:46.211Z,5.30
2023-05-13T23:17:12.849Z,5.60
2023-05-13T23:19:39.643Z,6.17
2023-05-13T23:22:06.351Z,6.00
2023-05-13T23:24:33.016Z,5.83
2023-05-13T23:26:59.706Z,6.33
2023-05-13T23:29:27.655Z,6.00
2023-05-13T23:31:55.299Z,7.73
2023-05-13T23:34:22.178Z,6.10
2023-05-13T23:36:48.858Z,6.30
2023-05-13T23:39:15.504Z,6.87
2023-05-13T23:41:43.060Z,8.00
2023-05-13T23:44:09.740Z,5.77
2023-05-13T23:46:36.459Z,5.53
2023-05-13T23:49:03.397Z,6.40
2023-05-13T23:51:30.044Z,6.90
2023-05-13T23:53:56.672Z,6.33
2023-05-13T23:56:23.308Z,6.17
2023-05-13T23:58:49.975Z,5.97
